createdAt,value
2023-07-01T00:01:20.457Z,67.67
2023-07-01T00:03:48.575Z,66.43
2023-07-01T00:06:18.052Z,66.27
2023-07-01T00:08:45.928Z,66.61
2023-07-01T00:11:13.888Z,66.25
2023-07-01T00:13:41.906Z,66.12
2023-07-01T00:16:10.218Z,66.19
2023-07-01T00:18:38.123Z,66.19
2023-07-01T00:21:06.037Z,66.16
2023-07-01T00:23:35.700Z,65.94
2023-07-01T00:26:04.040Z,66.41
2023-07-01T00:28:32.037Z,66.15
2023-07-01T00:31:01.110Z,66.15
2023-07-01T00:33:29.132Z,66.43
2023-07-01T00:35:57.083Z,66.29
2023-07-01T00:38:24.935Z,66.24
2023-07-01T00:40:54.239Z,66.97
2023-07-01T00:43:22.107Z,66.56
2023-07-01T00:45:50.373Z,66.91
2023-07-01T00:48:25.345Z,66.48
2023-07-01T00:50:54.226Z,66.34
2023-07-01T00:53:22.945Z,66.79
2023-07-01T00:55:52.002Z,66.62
2023-07-01T00:58:21.237Z,66.18
2023-07-01T01:00:49.610Z,66.24
2023-07-01T01:03:23.855Z,66.25
2023-07-01T01:06:01.843Z,66.49
2023-07-01T01:08:37.870Z,66.47
2023-07-01T01:11:07.793Z,66.61
2023-07-01T01:13:37.966Z,66.30
2023-07-01T01:16:06.989Z,66.42
2023-07-01T01:18:35.356Z,66.43
2023-07-01T01:21:05.447Z,66.20
2023-07-01T01:23:40.215Z,65.72
2023-07-01T01:26:14.813Z,66.15
2023-07-01T01:28:44.396Z,66.45
2023-07-01T01:31:13.097Z,66.02
2023-07-01T01:33:41.641Z,66.39
2023-07-01T01:36:15.201Z,66.29
2023-07-01T01:38:43.191Z,65.95
2023-07-01T01:41:17.567Z,66.42
2023-07-01T01:43:51.932Z,66.57
2023-07-01T01:46:22.014Z,66.27
2023-07-01T01:48:50.234Z,66.09
2023-07-01T01:51:19.438Z,66.57
2023-07-01T01:53:48.324Z,66.26
2023-07-01T01:56:17.484Z,66.00
2023-07-01T01:58:48.524Z,65.96
2023-07-01T02:01:16.981Z,66.05
2023-07-01T02:03:46.332Z,66.12
2023-07-01T02:06:14.617Z,65.94
2023-07-01T02:08:42.513Z,65.73
2023-07-01T02:11:10.496Z,65.85
2023-07-01T02:13:38.442Z,65.87
2023-07-01T02:16:07.932Z,65.88
2023-07-01T02:18:36.014Z,66.17
2023-07-01T02:21:05.334Z,65.62
2023-07-01T02:23:33.418Z,65.96
2023-07-01T02:26:01.278Z,66.07
2023-07-01T02:28:29.130Z,65.41
2023-07-01T02:30:57.053Z,65.80
2023-07-01T02:33:26.458Z,66.27
2023-07-01T02:35:54.369Z,66.20
2023-07-01T02:38:22.373Z,66.17
2023-07-01T02:40:50.365Z,66.48
2023-07-01T02:43:18.281Z,66.83
2023-07-01T02:45:46.179Z,66.59
2023-07-01T02:48:14.259Z,67.73
2023-07-01T02:50:43.548Z,68.12
2023-07-01T02:53:11.744Z,68.77
2023-07-01T02:55:39.655Z,68.91
2023-07-01T02:58:07.510Z,68.93
2023-07-01T03:00:35.384Z,69.37
2023-07-01T03:03:07.755Z,69.10
2023-07-01T03:05:36.571Z,68.63
2023-07-01T03:08:06.271Z,68.67
2023-07-01T03:10:34.264Z,68.84
2023-07-01T03:13:02.810Z,68.74
2023-07-01T03:15:30.813Z,69.07
2023-07-01T03:17:58.856Z,69.23
2023-07-01T03:20:26.871Z,69.04
2023-07-01T03:22:57.290Z,69.08
2023-07-01T03:25:28.113Z,68.84
2023-07-01T03:27:56.337Z,69.42
2023-07-01T03:30:31.431Z,69.41
2023-07-01T03:33:00.290Z,68.91
2023-07-01T03:35:28.170Z,69.24
2023-07-01T03:37:56.062Z,69.22
2023-07-01T03:40:23.933Z,69.14
2023-07-01T03:42:53.239Z,68.72
2023-07-01T03:45:21.138Z,68.94
2023-07-01T03:47:49.197Z,68.97
2023-07-01T03:50:17.554Z,68.40
2023-07-01T03:52:45.521Z,67.96
2023-07-01T03:55:13.723Z,68.23
2023-07-01T03:57:42.096Z,67.25
2023-07-01T04:00:18.855Z,67.66
2023-07-01T04:02:48.028Z,67.44
2023-07-01T04:05:16.920Z,67.60
2023-07-01T04:07:46.182Z,67.33
2023-07-01T04:10:14.604Z,67.33
2023-07-01T04:12:43.656Z,66.92
2023-07-01T04:15:13.258Z,66.36
2023-07-01T04:17:43.933Z,66.29
2023-07-01T04:20:12.959Z,67.66
2023-07-01T04:22:41.574Z,67.94
2023-07-01T04:25:10.349Z,67.07
2023-07-01T04:27:38.992Z,66.82
2023-07-01T04:30:09.400Z,66.79
2023-07-01T04:32:38.956Z,66.84
2023-07-01T04:35:07.582Z,67.41
2023-07-01T04:37:37.145Z,67.09
2023-07-01T04:40:06.243Z,67.98
2023-07-01T04:42:35.411Z,67.84
2023-07-01T04:45:03.637Z,68.25
2023-07-01T04:47:31.703Z,68.32
2023-07-01T04:50:01.025Z,68.41
2023-07-01T04:52:28.927Z,67.99
2023-07-01T04:54:56.778Z,68.07
2023-07-01T04:57:24.688Z,67.78
2023-07-01T04:59:52.498Z,68.06
2023-07-01T05:02:20.535Z,67.74
2023-07-01T05:04:48.729Z,68.04
2023-07-01T05:07:18.034Z,67.90
2023-07-01T05:09:45.984Z,67.66
2023-07-01T05:12:14.546Z,67.26
2023-07-01T05:14:42.608Z,67.02
2023-07-01T05:17:11.099Z,66.81
2023-07-01T05:19:38.945Z,66.21
2023-07-01T05:22:06.887Z,66.39
2023-07-01T05:24:36.233Z,66.76
2023-07-01T05:27:04.735Z,66.26
2023-07-01T05:29:32.819Z,66.40
2023-07-01T05:32:00.733Z,66.24
2023-07-01T05:34:28.655Z,66.03
2023-07-01T05:36:57.467Z,65.91
2023-07-01T05:39:25.951Z,65.86
2023-07-01T05:41:55.370Z,65.83
2023-07-01T05:44:25.617Z,65.27
2023-07-01T05:46:54.045Z,65.42
2023-07-01T05:49:21.965Z,65.09
2023-07-01T05:51:50.160Z,64.62
2023-07-01T05:54:18.459Z,64.26
2023-07-01T05:56:46.866Z,64.47
2023-07-01T05:59:16.224Z,65.02
2023-07-01T06:01:44.186Z,65.17
2023-07-01T06:04:12.280Z,65.50
2023-07-01T06:06:40.567Z,65.89
2023-07-01T06:09:11.131Z,66.44
2023-07-01T06:11:39.744Z,66.22
2023-07-01T06:14:07.699Z,66.65
2023-07-01T06:16:38.558Z,66.51
2023-07-01T06:19:07.016Z,66.42
2023-07-01T06:21:34.962Z,65.65
2023-07-01T06:24:02.997Z,65.21
2023-07-01T06:26:30.897Z,65.34
2023-07-01T06:28:58.832Z,64.79
2023-07-01T06:31:26.839Z,64.78
2023-07-01T06:33:56.215Z,64.87
2023-07-01T06:36:24.196Z,65.21
2023-07-01T06:38:52.065Z,66.64
2023-07-01T06:41:19.974Z,67.40
2023-07-01T06:43:48.062Z,66.68
2023-07-01T06:46:16.091Z,67.24
2023-07-01T06:48:44.345Z,67.69
2023-07-01T06:51:15.150Z,67.04
2023-07-01T06:53:43.044Z,67.62
2023-07-01T06:56:11.752Z,66.88
2023-07-01T06:58:41.247Z,67.58
2023-07-01T07:01:09.400Z,67.21
2023-07-01T07:03:40.527Z,67.62
2023-07-01T07:06:08.792Z,68.92
2023-07-01T07:08:38.720Z,70.06
2023-07-01T07:11:06.712Z,72.19
2023-07-01T07:13:34.668Z,74.04
2023-07-01T07:16:02.714Z,75.67
2023-07-01T07:18:30.734Z,76.74
2023-07-01T07:20:58.643Z,77.76
2023-07-01T07:23:26.714Z,81.36
2023-07-01T07:25:56.074Z,84.06
2023-07-01T07:28:23.986Z,84.76
2023-07-01T07:30:51.941Z,85.57
2023-07-01T07:33:19.844Z,86.65
2023-07-01T07:35:47.840Z,87.76
2023-07-01T07:38:16.209Z,88.88
2023-07-01T07:40:44.665Z,90.27
2023-07-01T07:43:14.503Z,86.83
2023-07-01T07:45:42.388Z,85.72
2023-07-01T07:48:10.271Z,87.90
2023-07-01T07:50:38.405Z,86.59
2023-07-01T07:53:07.056Z,86.82
2023-07-01T07:55:35.801Z,85.39
2023-07-01T07:58:04.207Z,84.77
2023-07-01T08:00:34.189Z,82.20
2023-07-01T08:03:02.192Z,84.75
2023-07-01T08:05:30.191Z,83.23
2023-07-01T08:07:58.128Z,83.50
2023-07-01T08:10:26.174Z,84.88
2023-07-01T08:12:54.033Z,84.46
2023-07-01T08:15:22.034Z,85.04
2023-07-01T08:17:51.451Z,84.01
2023-07-01T08:20:19.440Z,82.68
2023-07-01T08:22:47.442Z,79.99
2023-07-01T08:25:15.276Z,79.74
2023-07-01T08:27:43.183Z,79.69
2023-07-01T08:30:12.726Z,82.55
2023-07-01T08:32:41.410Z,82.20
2023-07-01T08:35:11.315Z,81.69
2023-07-01T08:37:39.198Z,84.75
2023-07-01T08:40:08.603Z,85.76
2023-07-01T08:42:44.093Z,85.75
2023-07-01T08:45:12.787Z,85.48
2023-07-01T08:47:41.530Z,85.87
2023-07-01T08:50:12.294Z,87.66
2023-07-01T08:52:43.818Z,88.43
2023-07-01T08:55:12.276Z,86.37
2023-07-01T08:57:41.111Z,86.89
2023-07-01T09:00:10.367Z,86.79
2023-07-01T09:02:38.914Z,88.38
2023-07-01T09:05:07.902Z,88.76
2023-07-01T09:07:37.296Z,89.27
2023-07-01T09:10:05.999Z,90.15
2023-07-01T09:12:34.178Z,88.66
2023-07-01T09:15:02.952Z,86.50
2023-07-01T09:17:32.406Z,86.85
2023-07-01T09:20:01.779Z,86.50
2023-07-01T09:22:30.185Z,87.39
2023-07-01T09:25:00.146Z,86.70
2023-07-01T09:27:40.745Z,85.85
2023-07-01T09:30:25.336Z,82.91
2023-07-01T09:32:53.670Z,83.94
2023-07-01T09:35:21.558Z,83.51
2023-07-01T09:38:03.884Z,83.52
2023-07-01T09:40:33.483Z,85.73
2023-07-01T09:43:01.385Z,85.12
2023-07-01T09:45:29.382Z,85.98
2023-07-01T09:47:57.283Z,85.87
2023-07-01T09:50:27.640Z,86.08
2023-07-01T09:52:56.566Z,85.18
2023-07-01T09:55:25.279Z,85.55
2023-07-01T09:57:55.187Z,84.44
2023-07-01T10:00:26.469Z,85.79
2023-07-01T10:02:55.579Z,86.20
2023-07-01T10:05:24.384Z,86.25
2023-07-01T10:07:52.292Z,87.20
2023-07-01T10:10:22.917Z,88.90
2023-07-01T10:12:54.522Z,86.19
2023-07-01T10:15:27.101Z,85.64
2023-07-01T10:17:56.991Z,85.21
2023-07-01T10:20:29.720Z,84.43
2023-07-01T10:22:58.741Z,84.12
2023-07-01T10:25:34.632Z,84.04
2023-07-01T10:28:12.976Z,84.13
2023-07-01T10:31:15.557Z,83.12
2023-07-01T10:33:50.736Z,82.69
2023-07-01T10:36:19.466Z,82.59
2023-07-01T10:38:47.886Z,82.11
2023-07-01T10:41:15.824Z,83.14
2023-07-01T10:43:45.211Z,83.47
2023-07-01T10:46:21.762Z,84.19
2023-07-01T10:49:10.167Z,84.89
2023-07-01T10:52:08.582Z,87.52
2023-07-01T10:54:39.320Z,88.31
2023-07-01T10:57:15.723Z,86.47
2023-07-01T10:59:45.364Z,85.48
2023-07-01T11:02:39.923Z,82.51
2023-07-01T11:05:10.331Z,81.59
2023-07-01T11:07:42.350Z,81.21
2023-07-01T11:10:10.912Z,81.60
2023-07-01T11:12:39.399Z,80.58
2023-07-01T11:15:10.589Z,81.40
2023-07-01T11:17:40.093Z,80.79
2023-07-01T11:20:09.247Z,79.91
2023-07-01T11:22:37.309Z,80.43
2023-07-01T11:25:06.069Z,79.52
2023-07-01T11:27:34.072Z,78.81
2023-07-01T11:30:01.911Z,80.30
2023-07-01T11:32:31.300Z,81.07
2023-07-01T11:35:00.591Z,84.54
2023-07-01T11:37:30.047Z,86.91
2023-07-01T11:39:58.124Z,88.95
2023-07-01T11:42:27.504Z,88.85
2023-07-01T11:44:55.498Z,88.56
2023-07-01T11:47:23.476Z,89.42
2023-07-01T11:49:52.732Z,91.13
2023-07-01T11:52:25.170Z,90.54
2023-07-01T11:54:55.663Z,89.26
2023-07-01T11:57:25.441Z,89.56
2023-07-01T11:59:59.761Z,90.11
2023-07-01T12:02:29.114Z,91.61
2023-07-01T12:04:58.860Z,91.10
2023-07-01T12:07:26.940Z,92.49
2023-07-01T12:09:55.118Z,93.04
2023-07-01T12:12:38.537Z,91.48
2023-07-01T12:15:08.464Z,91.31
2023-07-01T12:17:37.643Z,91.17
2023-07-01T12:20:09.884Z,89.85
2023-07-01T12:22:38.957Z,90.38
2023-07-01T12:25:07.488Z,89.17
2023-07-01T12:27:35.599Z,89.99
2023-07-01T12:30:05.310Z,89.87
2023-07-01T12:32:33.392Z,91.43
2023-07-01T12:35:01.357Z,90.24
2023-07-01T12:37:31.109Z,90.41
2023-07-01T12:40:00.301Z,90.59
2023-07-01T12:42:29.036Z,92.65
2023-07-01T12:44:57.259Z,91.63
2023-07-01T12:47:26.170Z,92.87
2023-07-01T12:49:55.353Z,91.84
2023-07-01T12:52:23.260Z,92.83
2023-07-01T12:54:53.654Z,95.67
2023-07-01T12:57:21.779Z,95.28
2023-07-01T12:59:52.680Z,94.62
2023-07-01T13:02:20.697Z,95.99
2023-07-01T13:04:54.035Z,97.16
2023-07-01T13:07:22.226Z,98.97
2023-07-01T13:09:52.050Z,98.49
2023-07-01T13:12:20.833Z,99.56
2023-07-01T13:14:48.711Z,98.68
2023-07-01T13:17:16.747Z,100.00
2023-07-01T13:19:44.706Z,99.37
2023-07-01T13:22:16.031Z,99.78
2023-07-01T13:24:45.340Z,99.68
2023-07-01T13:27:16.912Z,99.85
2023-07-01T13:29:44.942Z,100.00
2023-07-01T13:32:12.871Z,100.00
2023-07-01T13:34:46.490Z,100.00
2023-07-01T13:37:21.975Z,100.00
2023-07-01T13:39:51.024Z,100.00
2023-07-01T13:42:24.201Z,100.00
2023-07-01T13:44:54.946Z,100.00
2023-07-01T13:47:40.479Z,100.00
2023-07-01T13:50:12.692Z,100.00
2023-07-01T13:52:41.911Z,100.00
2023-07-01T13:55:10.814Z,100.00
2023-07-01T13:57:40.322Z,100.00
2023-07-01T14:00:10.050Z,99.92
2023-07-01T14:02:40.139Z,99.73
2023-07-01T14:05:08.594Z,97.55
2023-07-01T14:07:39.699Z,97.02
2023-07-01T14:10:19.467Z,98.25
2023-07-01T14:12:49.683Z,97.01
2023-07-01T14:15:33.490Z,95.86
2023-07-01T14:18:01.426Z,97.57
2023-07-01T14:20:29.408Z,96.36
2023-07-01T14:23:00.465Z,99.87
2023-07-01T14:25:34.439Z,100.00
2023-07-01T14:28:10.439Z,100.00
2023-07-01T14:31:05.901Z,97.69
2023-07-01T14:33:38.160Z,96.21
2023-07-01T14:36:11.994Z,92.57
2023-07-01T14:38:45.508Z,82.73
2023-07-01T14:41:19.989Z,82.82
2023-07-01T14:43:51.265Z,80.79
2023-07-01T14:46:19.270Z,79.44
2023-07-01T14:48:48.604Z,79.41
2023-07-01T14:51:17.547Z,80.13
2023-07-01T14:53:48.567Z,78.96
2023-07-01T14:56:17.575Z,78.30
2023-07-01T14:58:46.065Z,78.45
2023-07-01T15:01:15.855Z,77.22
2023-07-01T15:03:44.587Z,77.42
2023-07-01T15:06:13.465Z,78.45
2023-07-01T15:08:42.590Z,78.87
2023-07-01T15:11:10.898Z,78.93
2023-07-01T15:13:39.325Z,78.56
2023-07-01T15:16:08.726Z,77.88
2023-07-01T15:18:39.235Z,76.69
2023-07-01T15:21:07.359Z,75.22
2023-07-01T15:23:35.690Z,75.53
2023-07-01T15:26:03.585Z,75.22
2023-07-01T15:28:32.138Z,75.28
2023-07-01T15:31:06.526Z,76.31
2023-07-01T15:33:34.604Z,76.47
2023-07-01T15:36:04.249Z,76.29
2023-07-01T15:38:32.223Z,77.80
2023-07-01T15:41:00.121Z,78.75
2023-07-01T15:43:28.081Z,79.16
2023-07-01T15:45:56.177Z,79.05
2023-07-01T15:48:26.310Z,78.03
2023-07-01T15:50:55.448Z,78.01
2023-07-01T15:53:24.899Z,77.84
2023-07-01T15:55:54.158Z,76.79
2023-07-01T15:58:22.785Z,77.35
2023-07-01T16:00:50.862Z,76.03
2023-07-01T16:03:18.984Z,76.86
2023-07-01T16:05:48.126Z,77.12
2023-07-01T16:08:17.507Z,76.37
2023-07-01T16:10:50.563Z,77.57
2023-07-01T16:13:33.460Z,76.45
2023-07-01T16:16:06.829Z,73.42
2023-07-01T16:18:53.853Z,70.80
2023-07-01T16:21:22.988Z,71.06
2023-07-01T16:23:52.743Z,67.66
2023-07-01T16:26:30.355Z,65.67
2023-07-01T16:28:58.742Z,63.62
2023-07-01T16:31:28.611Z,64.98
2023-07-01T16:33:57.388Z,66.69
2023-07-01T16:36:28.257Z,65.70
2023-07-01T16:39:00.793Z,66.21
2023-07-01T16:41:32.562Z,66.62
2023-07-01T16:44:00.898Z,67.22
2023-07-01T16:46:37.463Z,68.12
2023-07-01T16:49:07.334Z,67.00
2023-07-01T16:51:36.760Z,66.77
2023-07-01T16:54:12.043Z,67.03
2023-07-01T16:56:43.933Z,66.58
2023-07-01T16:59:25.872Z,65.06
2023-07-01T17:01:54.107Z,65.92
2023-07-01T17:04:29.252Z,66.13
2023-07-01T17:06:57.357Z,66.88
2023-07-01T17:09:48.025Z,66.60
2023-07-01T17:12:28.401Z,67.65
2023-07-01T17:14:56.917Z,66.82
2023-07-01T17:17:41.162Z,67.28
2023-07-01T17:20:10.767Z,68.47
2023-07-01T17:22:40.259Z,68.45
2023-07-01T17:25:09.316Z,68.75
2023-07-01T17:27:38.572Z,68.44
2023-07-01T17:30:07.682Z,68.48
2023-07-01T17:32:35.702Z,67.96
2023-07-01T17:35:14.441Z,67.64
2023-07-01T17:37:42.399Z,67.93
2023-07-01T17:40:11.067Z,68.65
2023-07-01T17:42:40.387Z,70.06
2023-07-01T17:45:09.000Z,71.79
2023-07-01T17:47:37.009Z,73.70
2023-07-01T17:50:19.751Z,73.51
2023-07-01T17:52:50.312Z,73.73
2023-07-01T17:55:19.267Z,74.10
2023-07-01T18:00:19.904Z,74.67
2023-07-01T18:02:47.899Z,73.09
2023-07-01T18:05:15.958Z,73.60
2023-07-01T18:07:44.614Z,72.84
2023-07-01T18:10:12.997Z,73.46
2023-07-01T18:12:42.230Z,73.83
2023-07-01T18:15:17.312Z,74.02
2023-07-01T18:17:46.407Z,74.79
2023-07-01T18:20:15.400Z,75.45
2023-07-01T18:22:43.732Z,76.41
2023-07-01T18:25:13.761Z,75.81
2023-07-01T18:27:41.772Z,76.02
2023-07-01T18:30:13.855Z,75.46
2023-07-01T18:32:43.772Z,75.01
2023-07-01T18:35:14.790Z,75.41
2023-07-01T18:37:45.515Z,74.91
2023-07-01T18:40:14.533Z,75.66
2023-07-01T18:42:42.639Z,76.32
2023-07-01T18:45:13.204Z,76.66
2023-07-01T18:47:41.074Z,76.95
2023-07-01T18:50:09.656Z,76.23
2023-07-01T18:52:37.494Z,77.50
2023-07-01T18:55:06.192Z,77.70
2023-07-01T18:57:34.422Z,78.00
2023-07-01T19:00:02.641Z,78.02
2023-07-01T19:02:32.323Z,78.51
2023-07-01T19:05:00.230Z,78.71
2023-07-01T19:07:29.576Z,78.98
2023-07-01T19:09:57.717Z,77.93
2023-07-01T19:12:27.076Z,78.86
2023-07-01T19:14:55.011Z,78.42
2023-07-01T19:17:23.108Z,78.56
2023-07-01T19:19:53.313Z,78.73
2023-07-01T19:22:22.625Z,78.12
2023-07-01T19:24:52.013Z,77.31
2023-07-01T19:27:20.891Z,74.63
2023-07-01T19:30:03.171Z,73.58
2023-07-01T19:32:38.013Z,74.32
2023-07-01T19:35:08.440Z,73.72
2023-07-01T19:37:36.296Z,73.97
2023-07-01T19:40:04.890Z,73.60
2023-07-01T19:42:32.838Z,74.46
2023-07-01T19:45:00.669Z,74.13
2023-07-01T19:47:29.631Z,74.19
2023-07-01T19:49:57.619Z,75.27
2023-07-01T19:52:27.093Z,78.54
2023-07-01T19:54:54.963Z,81.17
2023-07-01T19:57:22.814Z,81.28
2023-07-01T19:59:50.733Z,80.94
2023-07-01T20:02:18.677Z,79.55
2023-07-01T20:04:46.608Z,78.20
2023-07-01T20:07:14.493Z,78.14
2023-07-01T20:09:45.067Z,78.22
2023-07-01T20:12:14.012Z,79.49
2023-07-01T20:14:42.289Z,79.09
2023-07-01T20:17:10.913Z,80.29
2023-07-01T20:19:38.744Z,80.31
2023-07-01T20:22:06.754Z,80.27
2023-07-01T20:24:35.194Z,81.46
2023-07-01T20:27:05.131Z,82.19
2023-07-01T20:29:33.949Z,82.93
2023-07-01T20:32:02.319Z,83.10
2023-07-01T20:34:30.197Z,84.38
2023-07-01T20:36:58.088Z,84.68
2023-07-01T20:39:26.187Z,84.79
2023-07-01T20:42:06.830Z,83.96
2023-07-01T20:44:37.749Z,83.25
2023-07-01T20:47:13.645Z,81.71
2023-07-01T20:49:44.717Z,82.06
2023-07-01T20:52:12.844Z,82.61
2023-07-01T20:54:40.950Z,82.24
2023-07-01T20:57:09.137Z,82.72
2023-07-01T20:59:42.618Z,81.71
2023-07-01T21:02:14.827Z,81.53
2023-07-01T21:04:48.741Z,82.19
2023-07-01T21:07:23.487Z,82.60
2023-07-01T21:09:57.244Z,81.87
2023-07-01T21:12:30.329Z,82.11
2023-07-01T21:15:04.456Z,81.83
2023-07-01T21:17:36.880Z,82.17
2023-07-01T21:20:08.028Z,82.44
2023-07-01T21:22:38.450Z,82.16
2023-07-01T21:25:12.430Z,82.11
2023-07-01T21:28:03.789Z,82.19
2023-07-01T21:30:39.784Z,83.30
2023-07-01T21:33:08.297Z,83.66
2023-07-01T21:35:40.379Z,84.08
2023-07-01T21:38:08.369Z,84.58
2023-07-01T21:40:40.332Z,85.55
2023-07-01T21:43:17.594Z,85.26
2023-07-01T21:45:47.906Z,85.92
2023-07-01T21:48:17.750Z,85.87
2023-07-01T21:50:59.323Z,85.96
2023-07-01T21:53:32.450Z,86.87
2023-07-01T21:56:01.714Z,86.69
2023-07-01T21:58:32.518Z,86.79
2023-07-01T22:01:03.938Z,86.91
2023-07-01T22:03:33.267Z,87.66
2023-07-01T22:06:01.446Z,87.91
2023-07-01T22:08:29.300Z,88.09
2023-07-01T22:10:58.893Z,87.31
2023-07-01T22:13:29.105Z,87.47
2023-07-01T22:15:57.191Z,87.61
2023-07-01T22:18:26.403Z,87.26
2023-07-01T22:20:54.340Z,87.31
2023-07-01T22:23:22.285Z,86.39
2023-07-01T22:25:50.358Z,86.40
2023-07-01T22:28:18.260Z,86.93
2023-07-01T22:30:46.480Z,86.94
2023-07-01T22:33:14.688Z,88.12
2023-07-01T22:35:43.942Z,88.37
2023-07-01T22:38:11.788Z,89.50
2023-07-01T22:40:39.654Z,90.81
2023-07-01T22:43:07.574Z,91.32
2023-07-01T22:45:35.422Z,91.69
2023-07-01T22:48:03.353Z,92.33
2023-07-01T22:50:32.476Z,93.44
2023-07-01T22:53:01.797Z,94.33
2023-07-01T22:55:29.773Z,94.38
2023-07-01T22:57:57.699Z,94.87
2023-07-01T23:00:25.927Z,95.62
2023-07-01T23:02:53.941Z,96.84
2023-07-01T23:05:22.016Z,98.18
2023-07-01T23:07:51.107Z,98.96
2023-07-01T23:10:20.520Z,99.47
2023-07-01T23:12:48.450Z,99.74
2023-07-01T23:15:18.535Z,99.00
2023-07-01T23:17:48.052Z,99.37
2023-07-01T23:20:15.944Z,99.33
2023-07-01T23:22:43.844Z,98.87
2023-07-01T23:25:14.333Z,98.95
2023-07-01T23:27:44.250Z,98.32
2023-07-01T23:30:16.056Z,98.01
2023-07-01T23:32:46.933Z,97.96
2023-07-01T23:35:15.612Z,99.07
2023-07-01T23:37:43.453Z,99.04
2023-07-01T23:40:12.171Z,99.01
2023-07-01T23:42:39.976Z,99.57
2023-07-01T23:45:10.374Z,99.70
2023-07-01T23:47:38.272Z,98.75
2023-07-01T23:50:06.822Z,98.77
2023-07-01T23:52:34.669Z,98.98
2023-07-01T23:55:02.504Z,99.74
2023-07-01T23:57:30.385Z,99.14
2023-07-01T23:59:58.242Z,99.37
